sensor_id;sensor_type;location;lat;lon;timestamp;pressure;altitude;pressure_sealevel;temperature;humidity
69411;BME280;56604;48.652;9.194;2022-08-21T00:02:18;96456.72;;;16.42;67.25
69411;BME280;56604;48.652;9.194;2022-08-21T00:04:44;96458.94;;;16.35;67.50
69411;BME280;56604;48.652;9.194;2022-08-21T00:07:09;96459.50;;;16.32;67.22
69411;BME280;56604;48.652;9.194;2022-08-21T00:09:35;96468.41;;;16.41;67.95
69411;BME280;56604;48.652;9.194;2022-08-21T00:12:01;96465.72;;;16.46;67.87
69411;BME280;56604;48.652;9.194;2022-08-21T00:14:27;96459.84;;;16.49;67.48
69411;BME280;56604;48.652;9.194;2022-08-21T00:16:52;96465.25;;;16.39;67.55
69411;BME280;56604;48.652;9.194;2022-08-21T00:19:17;96455.44;;;16.39;67.71
69411;BME280;56604;48.652;9.194;2022-08-21T00:21:43;96449.63;;;16.37;67.49
69411;BME280;56604;48.652;9.194;2022-08-21T00:24:08;96441.44;;;16.34;68.40
69411;BME280;56604;48.652;9.194;2022-08-21T00:26:34;96448.97;;;16.22;67.75
69411;BME280;56604;48.652;9.194;2022-08-21T00:28:59;96453.84;;;16.09;69.01
69411;BME280;56604;48.652;9.194;2022-08-21T00:31:25;96459.72;;;16.06;68.17
69411;BME280;56604;48.652;9.194;2022-08-21T00:33:50;96448.81;;;16.08;68.96
69411;BME280;56604;48.652;9.194;2022-08-21T00:36:15;96448.03;;;16.07;69.65
69411;BME280;56604;48.652;9.194;2022-08-21T00:38:41;96437.34;;;16.17;68.98
69411;BME280;56604;48.652;9.194;2022-08-21T00:41:09;96454.31;;;16.16;68.53
69411;BME280;56604;48.652;9.194;2022-08-21T00:43:36;96449.63;;;16.08;68.54
69411;BME280;56604;48.652;9.194;2022-08-21T00:46:03;96441.38;;;16.10;68.50
69411;BME280;56604;48.652;9.194;2022-08-21T00:48:30;96454.31;;;16.16;68.78
69411;BME280;56604;48.652;9.194;2022-08-21T00:51:07;96443.78;;;16.11;68.29
69411;BME280;56604;48.652;9.194;2022-08-21T00:53:36;96446.69;;;16.10;69.09
69411;BME280;56604;48.652;9.194;2022-08-21T00:56:04;96445.34;;;16.12;69.04
69411;BME280;56604;48.652;9.194;2022-08-21T00:58:31;96441.72;;;16.03;68.94
69411;BME280;56604;48.652;9.194;2022-08-21T01:00:57;96447.09;;;15.93;69.29
69411;BME280;56604;48.652;9.194;2022-08-21T01:03:25;96444.25;;;15.84;69.63
69411;BME280;56604;48.652;9.194;2022-08-21T01:05:51;96438.16;;;15.84;69.99
69411;BME280;56604;48.652;9.194;2022-08-21T01:08:18;96448.75;;;15.84;69.88
69411;BME280;56604;48.652;9.194;2022-08-21T01:10:44;96439.78;;;15.80;69.59
69411;BME280;56604;48.652;9.194;2022-08-21T01:13:14;96439.91;;;15.93;69.73
69411;BME280;56604;48.652;9.194;2022-08-21T01:15:43;96434.91;;;15.92;70.28
69411;BME280;56604;48.652;9.194;2022-08-21T01:18:10;96438.94;;;15.84;70.01
69411;BME280;56604;48.652;9.194;2022-08-21T01:20:37;96433.97;;;15.78;69.87
69411;BME280;56604;48.652;9.194;2022-08-21T01:23:05;96440.63;;;15.65;70.16
69411;BME280;56604;48.652;9.194;2022-08-21T01:25:32;96437.88;;;15.46;71.01
69411;BME280;56604;48.652;9.194;2022-08-21T01:27:59;96438.72;;;15.36;71.54
69411;BME280;56604;48.652;9.194;2022-08-21T01:30:27;96441.88;;;15.38;71.17
69411;BME280;56604;48.652;9.194;2022-08-21T01:32:54;96440.59;;;15.30;71.68
69411;BME280;56604;48.652;9.194;2022-08-21T01:35:20;96440.03;;;15.34;71.55
69411;BME280;56604;48.652;9.194;2022-08-21T01:37:46;96431.13;;;15.19;72.33
69411;BME280;56604;48.652;9.194;2022-08-21T01:40:15;96431.88;;;15.25;71.69
69411;BME280;56604;48.652;9.194;2022-08-21T01:42:42;96431.66;;;15.16;72.37
69411;BME280;56604;48.652;9.194;2022-08-21T01:45:08;96427.97;;;15.17;72.15
69411;BME280;56604;48.652;9.194;2022-08-21T01:47:34;96428.47;;;15.19;72.58
69411;BME280;56604;48.652;9.194;2022-08-21T01:50:00;96431.88;;;15.25;72.49
69411;BME280;56604;48.652;9.194;2022-08-21T01:52:26;96424.75;;;15.25;72.15
69411;BME280;56604;48.652;9.194;2022-08-21T01:54:51;96423.47;;;15.18;71.75
69411;BME280;56604;48.652;9.194;2022-08-21T01:57:17;96424.81;;;15.10;72.19
69411;BME280;56604;48.652;9.194;2022-08-21T01:59:43;96430.94;;;15.05;72.40
69411;BME280;56604;48.652;9.194;2022-08-21T02:02:08;96416.13;;;15.04;72.82
69411;BME280;56604;48.652;9.194;2022-08-21T02:04:34;96414.31;;;15.00;72.45
69411;BME280;56604;48.652;9.194;2022-08-21T02:07:00;96411.59;;;15.05;72.30
69411;BME280;56604;48.652;9.194;2022-08-21T02:09:26;96406.59;;;15.03;72.58
69411;BME280;56604;48.652;9.194;2022-08-21T02:11:51;96409.25;;;15.03;72.46
69411;BME280;56604;48.652;9.194;2022-08-21T02:14:17;96408.19;;;14.99;72.42
69411;BME280;56604;48.652;9.194;2022-08-21T02:16:43;96405.53;;;15.04;72.67
69411;BME280;56604;48.652;9.194;2022-08-21T02:19:10;96404.13;;;15.17;72.04
69411;BME280;56604;48.652;9.194;2022-08-21T02:21:37;96398.84;;;15.17;71.96
69411;BME280;56604;48.652;9.194;2022-08-21T02:24:03;96400.41;;;15.18;72.37
69411;BME280;56604;48.652;9.194;2022-08-21T02:26:28;96408.34;;;15.23;72.47
69411;BME280;56604;48.652;9.194;2022-08-21T02:28:54;96397.97;;;15.27;72.60
69411;BME280;56604;48.652;9.194;2022-08-21T02:31:19;96403.28;;;15.27;72.11
69411;BME280;56604;48.652;9.194;2022-08-21T02:33:44;96403.16;;;15.03;72.95
69411;BME280;56604;48.652;9.194;2022-08-21T02:36:11;96394.34;;;15.13;72.83
69411;BME280;56604;48.652;9.194;2022-08-21T02:38:38;96401.75;;;15.16;72.85
69411;BME280;56604;48.652;9.194;2022-08-21T02:41:10;96396.78;;;15.09;72.94
69411;BME280;56604;48.652;9.194;2022-08-21T02:43:35;96393.28;;;15.14;73.06
69411;BME280;56604;48.652;9.194;2022-08-21T02:46:03;96393.06;;;15.05;72.69
69411;BME280;56604;48.652;9.194;2022-08-21T02:48:31;96390.69;;;15.09;72.71
69411;BME280;56604;48.652;9.194;2022-08-21T02:51:00;96393.63;;;14.97;72.68
69411;BME280;56604;48.652;9.194;2022-08-21T02:53:26;96401.34;;;14.88;73.13
69411;BME280;56604;48.652;9.194;2022-08-21T02:55:52;96395.25;;;14.98;73.16
69411;BME280;56604;48.652;9.194;2022-08-21T02:58:22;96398.47;;;14.84;73.38
69411;BME280;56604;48.652;9.194;2022-08-21T03:00:48;96404.53;;;14.90;73.51
69411;BME280;56604;48.652;9.194;2022-08-21T03:03:15;96403.75;;;14.90;73.38
69411;BME280;56604;48.652;9.194;2022-08-21T03:05:40;96395.25;;;14.93;73.84
69411;BME280;56604;48.652;9.194;2022-08-21T03:08:07;96402.19;;;14.83;73.74
69411;BME280;56604;48.652;9.194;2022-08-21T03:10:36;96396.69;;;14.75;74.18
69411;BME280;56604;48.652;9.194;2022-08-21T03:13:02;96396.88;;;14.89;74.00
69411;BME280;56604;48.652;9.194;2022-08-21T03:15:28;96393.63;;;14.97;73.92
69411;BME280;56604;48.652;9.194;2022-08-21T03:17:54;96400.25;;;14.99;73.80
69411;BME280;56604;48.652;9.194;2022-08-21T03:20:22;96398.44;;;14.90;74.07
69411;BME280;56604;48.652;9.194;2022-08-21T03:22:49;96405.88;;;14.88;74.33
69411;BME280;56604;48.652;9.194;2022-08-21T03:25:15;96400.56;;;14.93;73.94
69411;BME280;56604;48.652;9.194;2022-08-21T03:27:40;96401.09;;;14.95;73.95
69411;BME280;56604;48.652;9.194;2022-08-21T03:30:07;96405.03;;;14.97;74.06
69411;BME280;56604;48.652;9.194;2022-08-21T03:32:33;96406.38;;;14.95;74.22
69411;BME280;56604;48.652;9.194;2022-08-21T03:34:59;96405.84;;;14.93;74.69
69411;BME280;56604;48.652;9.194;2022-08-21T03:37:25;96405.09;;;14.87;74.53
69411;BME280;56604;48.652;9.194;2022-08-21T03:39:51;96412.78;;;14.78;75.37
69411;BME280;56604;48.652;9.194;2022-08-21T03:42:16;96414.38;;;14.79;74.86
69411;BME280;56604;48.652;9.194;2022-08-21T03:44:42;96411.50;;;14.71;74.67
69411;BME280;56604;48.652;9.194;2022-08-21T03:47:07;96411.75;;;14.74;74.95
69411;BME280;56604;48.652;9.194;2022-08-21T03:49:33;96413.88;;;14.77;74.80
69411;BME280;56604;48.652;9.194;2022-08-21T03:51:58;96410.72;;;14.70;74.88
69411;BME280;56604;48.652;9.194;2022-08-21T03:54:24;96409.63;;;14.71;75.24
69411;BME280;56604;48.652;9.194;2022-08-21T03:56:50;96417.88;;;14.65;75.22
69411;BME280;56604;48.652;9.194;2022-08-21T03:59:15;96418.41;;;14.61;75.21
69411;BME280;56604;48.652;9.194;2022-08-21T04:01:55;96419.19;;;14.62;75.23
69411;BME280;56604;48.652;9.194;2022-08-21T04:04:20;96419.47;;;14.50;75.59
69411;BME280;56604;48.652;9.194;2022-08-21T04:06:46;96417.63;;;14.46;75.89
69411;BME280;56604;48.652;9.194;2022-08-21T04:09:11;96427.97;;;14.37;75.80
69411;BME280;56604;48.652;9.194;2022-08-21T04:11:37;96417.69;;;14.30;76.51
69411;BME280;56604;48.652;9.194;2022-08-21T04:14:02;96431.44;;;14.37;76.27
69411;BME280;56604;48.652;9.194;2022-08-21T04:16:28;96430.34;;;14.38;76.61
69411;BME280;56604;48.652;9.194;2022-08-21T04:18:53;96427.69;;;14.49;76.19
69411;BME280;56604;48.652;9.194;2022-08-21T04:21:18;96423.44;;;14.48;76.20
69411;BME280;56604;48.652;9.194;2022-08-21T04:23:44;96433.78;;;14.39;76.42
69411;BME280;56604;48.652;9.194;2022-08-21T04:26:09;96431.66;;;14.46;76.53
69411;BME280;56604;48.652;9.194;2022-08-21T04:28:34;96428.75;;;14.58;76.21
69411;BME280;56604;48.652;9.194;2022-08-21T04:30:59;96434.03;;;14.58;75.91
69411;BME280;56604;48.652;9.194;2022-08-21T04:33:25;96433.22;;;14.62;76.05
69411;BME280;56604;48.652;9.194;2022-08-21T04:35:50;96448.84;;;14.54;76.17
69411;BME280;56604;48.652;9.194;2022-08-21T04:38:16;96451.25;;;14.55;76.96
69411;BME280;56604;48.652;9.194;2022-08-21T04:40:42;96448.84;;;14.64;77.15
69411;BME280;56604;48.652;9.194;2022-08-21T04:43:09;96447.47;;;14.77;76.05
69411;BME280;56604;48.652;9.194;2022-08-21T04:45:39;96446.84;;;15.00;75.15
69411;BME280;56604;48.652;9.194;2022-08-21T04:48:07;96447.72;;;15.35;73.98
69411;BME280;56604;48.652;9.194;2022-08-21T04:50:37;96448.16;;;15.52;73.01
69411;BME280;56604;48.652;9.194;2022-08-21T04:53:10;96452.03;;;15.70;72.23
69411;BME280;56604;48.652;9.194;2022-08-21T04:55:36;96451.28;;;15.99;71.12
69411;BME280;56604;48.652;9.194;2022-08-21T04:58:05;96450.94;;;16.40;69.32
69411;BME280;56604;48.652;9.194;2022-08-21T05:00:31;96455.25;;;16.84;68.03
69411;BME280;56604;48.652;9.194;2022-08-21T05:02:57;96449.50;;;17.58;65.73
69411;BME280;56604;48.652;9.194;2022-08-21T05:05:24;96448.16;;;17.79;64.30
69411;BME280;56604;48.652;9.194;2022-08-21T05:07:50;96444.75;;;18.25;63.28
69411;BME280;56604;48.652;9.194;2022-08-21T05:10:17;96446.56;;;18.71;62.16
69411;BME280;56604;48.652;9.194;2022-08-21T05:12:43;96445.19;;;19.15;60.18
69411;BME280;56604;48.652;9.194;2022-08-21T05:15:10;96450.78;;;19.77;58.93
69411;BME280;56604;48.652;9.194;2022-08-21T05:17:41;96442.88;;;20.17;57.25
69411;BME280;56604;48.652;9.194;2022-08-21T05:20:10;96447.38;;;20.62;55.74
69411;BME280;56604;48.652;9.194;2022-08-21T05:22:36;96452.94;;;21.40;54.18
69411;BME280;56604;48.652;9.194;2022-08-21T05:25:02;96459.88;;;22.19;51.43
69411;BME280;56604;48.652;9.194;2022-08-21T05:27:28;96457.28;;;22.87;50.10
69411;BME280;56604;48.652;9.194;2022-08-21T05:29:55;96467.72;;;22.80;50.25
69411;BME280;56604;48.652;9.194;2022-08-21T05:32:21;96464.41;;;22.36;50.85
69411;BME280;56604;48.652;9.194;2022-08-21T05:34:46;96469.63;;;23.18;49.69
69411;BME280;56604;48.652;9.194;2022-08-21T05:37:11;96462.50;;;23.64;48.34
69411;BME280;56604;48.652;9.194;2022-08-21T05:39:37;96460.19;;;23.84;47.27
69411;BME280;56604;48.652;9.194;2022-08-21T05:42:03;96461.84;;;23.67;48.17
69411;BME280;56604;48.652;9.194;2022-08-21T05:44:28;96455.50;;;23.93;47.13
69411;BME280;56604;48.652;9.194;2022-08-21T05:46:53;96465.41;;;24.01;47.58
69411;BME280;56604;48.652;9.194;2022-08-21T05:49:19;96470.25;;;23.87;47.58
69411;BME280;56604;48.652;9.194;2022-08-21T05:51:44;96464.28;;;24.35;47.55
69411;BME280;56604;48.652;9.194;2022-08-21T05:54:10;96473.19;;;24.48;46.82
69411;BME280;56604;48.652;9.194;2022-08-21T05:56:36;96467.16;;;24.76;46.23
69411;BME280;56604;48.652;9.194;2022-08-21T05:59:01;96469.22;;;25.28;45.42
69411;BME280;56604;48.652;9.194;2022-08-21T06:01:27;96469.41;;;24.98;46.42
69411;BME280;56604;48.652;9.194;2022-08-21T06:03:52;96464.03;;;25.35;44.97
69411;BME280;56604;48.652;9.194;2022-08-21T06:06:19;96465.94;;;25.34;44.90
69411;BME280;56604;48.652;9.194;2022-08-21T06:08:44;96469.16;;;25.65;44.93
69411;BME280;56604;48.652;9.194;2022-08-21T06:11:10;96464.38;;;26.14;43.24
69411;BME280;56604;48.652;9.194;2022-08-21T06:13:36;96467.16;;;26.18;43.46
69411;BME280;56604;48.652;9.194;2022-08-21T06:16:11;96467.81;;;26.27;42.89
69411;BME280;56604;48.652;9.194;2022-08-21T06:18:38;96467.63;;;26.20;43.54
69411;BME280;56604;48.652;9.194;2022-08-21T06:21:04;96473.50;;;26.10;43.47
69411;BME280;56604;48.652;9.194;2022-08-21T06:23:30;96475.09;;;27.02;41.98
69411;BME280;56604;48.652;9.194;2022-08-21T06:25:56;96474.13;;;26.95;42.15
69411;BME280;56604;48.652;9.194;2022-08-21T06:28:22;96473.34;;;27.61;41.04
69411;BME280;56604;48.652;9.194;2022-08-21T06:30:47;96460.25;;;28.41;38.97
69411;BME280;56604;48.652;9.194;2022-08-21T06:33:12;96465.16;;;28.78;38.04
69411;BME280;56604;48.652;9.194;2022-08-21T06:35:38;96462.66;;;28.92;37.88
69411;BME280;56604;48.652;9.194;2022-08-21T06:38:03;96464.59;;;28.45;37.40
69411;BME280;56604;48.652;9.194;2022-08-21T06:40:29;96463.16;;;28.75;37.58
69411;BME280;56604;48.652;9.194;2022-08-21T06:42:55;96466.00;;;28.39;37.24
69411;BME280;56604;48.652;9.194;2022-08-21T06:45:21;96463.38;;;28.43;38.12
69411;BME280;56604;48.652;9.194;2022-08-21T06:47:46;96465.97;;;29.05;36.93
69411;BME280;56604;48.652;9.194;2022-08-21T06:50:12;96464.41;;;29.04;36.70
69411;BME280;56604;48.652;9.194;2022-08-21T06:52:37;96451.25;;;28.56;37.04
69411;BME280;56604;48.652;9.194;2022-08-21T06:55:08;96462.44;;;28.78;37.61
69411;BME280;56604;48.652;9.194;2022-08-21T06:57:34;96457.66;;;30.41;34.47
69411;BME280;56604;48.652;9.194;2022-08-21T06:59:59;96453.31;;;29.66;35.36
69411;BME280;56604;48.652;9.194;2022-08-21T07:02:24;96468.84;;;28.92;36.41
69411;BME280;56604;48.652;9.194;2022-08-21T07:04:50;96458.44;;;30.42;34.32
69411;BME280;56604;48.652;9.194;2022-08-21T07:07:16;96463.19;;;30.15;33.67
69411;BME280;56604;48.652;9.194;2022-08-21T07:09:42;96462.34;;;29.77;35.00
69411;BME280;56604;48.652;9.194;2022-08-21T07:12:07;96460.31;;;30.34;33.61
69411;BME280;56604;48.652;9.194;2022-08-21T07:14:33;96461.16;;;29.18;34.45
69411;BME280;56604;48.652;9.194;2022-08-21T07:16:59;96464.50;;;30.28;33.12
69411;BME280;56604;48.652;9.194;2022-08-21T07:19:24;96454.56;;;30.06;32.78
69411;BME280;56604;48.652;9.194;2022-08-21T07:21:49;96452.56;;;30.02;33.18
69411;BME280;56604;48.652;9.194;2022-08-21T07:24:15;96454.56;;;30.06;33.12
69411;BME280;56604;48.652;9.194;2022-08-21T07:26:40;96457.34;;;30.13;33.46
69411;BME280;56604;48.652;9.194;2022-08-21T07:29:06;96458.06;;;30.84;31.54
69411;BME280;56604;48.652;9.194;2022-08-21T07:31:31;96458.47;;;29.74;33.61
69411;BME280;56604;48.652;9.194;2022-08-21T07:33:57;96447.88;;;30.33;32.06
69411;BME280;56604;48.652;9.194;2022-08-21T07:36:22;96445.63;;;30.80;32.02
69411;BME280;56604;48.652;9.194;2022-08-21T07:38:48;96449.44;;;32.00;30.17
69411;BME280;56604;48.652;9.194;2022-08-21T07:41:20;96458.84;;;30.10;32.41
69411;BME280;56604;48.652;9.194;2022-08-21T07:43:46;96447.66;;;30.12;32.59
69411;BME280;56604;48.652;9.194;2022-08-21T07:46:11;96448.28;;;30.32;32.84
69411;BME280;56604;48.652;9.194;2022-08-21T07:48:37;96449.56;;;30.89;31.47
69411;BME280;56604;48.652;9.194;2022-08-21T07:51:07;96453.97;;;28.37;37.18
69411;BME280;56604;48.652;9.194;2022-08-21T07:53:33;96449.50;;;28.67;35.17
69411;BME280;56604;48.652;9.194;2022-08-21T07:55:59;96447.97;;;28.93;36.48
69411;BME280;56604;48.652;9.194;2022-08-21T07:58:24;96452.81;;;29.30;35.76
69411;BME280;56604;48.652;9.194;2022-08-21T08:00:49;96452.03;;;28.57;36.41
69411;BME280;56604;48.652;9.194;2022-08-21T08:03:15;96449.56;;;28.48;35.96
69411;BME280;56604;48.652;9.194;2022-08-21T08:05:40;96445.09;;;28.82;35.45
69411;BME280;56604;48.652;9.194;2022-08-21T08:08:06;96439.81;;;29.43;34.78
69411;BME280;56604;48.652;9.194;2022-08-21T08:10:32;96445.09;;;29.32;34.53
69411;BME280;56604;48.652;9.194;2022-08-21T08:12:57;96445.88;;;28.17;37.96
69411;BME280;56604;48.652;9.194;2022-08-21T08:15:25;96441.63;;;28.16;37.68
69411;BME280;56604;48.652;9.194;2022-08-21T08:17:51;96440.22;;;28.03;38.04
69411;BME280;56604;48.652;9.194;2022-08-21T08:20:17;96438.94;;;28.16;37.06
69411;BME280;56604;48.652;9.194;2022-08-21T08:22:44;96441.09;;;27.33;38.69
69411;BME280;56604;48.652;9.194;2022-08-21T08:25:11;96438.94;;;29.08;36.85
69411;BME280;56604;48.652;9.194;2022-08-21T08:27:37;96436.63;;;27.41;38.32
69411;BME280;56604;48.652;9.194;2022-08-21T08:30:04;96427.88;;;27.12;39.75
69411;BME280;56604;48.652;9.194;2022-08-21T08:32:30;96431.91;;;26.86;41.20
69411;BME280;56604;48.652;9.194;2022-08-21T08:34:55;96427.13;;;27.47;39.38
69411;BME280;56604;48.652;9.194;2022-08-21T08:37:21;96426.22;;;27.23;39.82
69411;BME280;56604;48.652;9.194;2022-08-21T08:39:46;96427.13;;;26.96;41.54
69411;BME280;56604;48.652;9.194;2022-08-21T08:42:13;96421.84;;;27.34;39.65
69411;BME280;56604;48.652;9.194;2022-08-21T08:44:41;96420.88;;;28.01;38.98
69411;BME280;56604;48.652;9.194;2022-08-21T08:47:09;96415.75;;;28.15;38.94
69411;BME280;56604;48.652;9.194;2022-08-21T08:50:04;96418.63;;;27.29;40.59
69411;BME280;56604;48.652;9.194;2022-08-21T08:52:32;96417.31;;;27.39;40.06
69411;BME280;56604;48.652;9.194;2022-08-21T08:57:33;96404.84;;;26.35;41.51
69411;BME280;56604;48.652;9.194;2022-08-21T09:00:04;96400.50;;;27.84;38.76
69411;BME280;56604;48.652;9.194;2022-08-21T09:02:30;96416.28;;;26.76;40.38
69411;BME280;56604;48.652;9.194;2022-08-21T09:04:56;96406.38;;;27.51;39.24
69411;BME280;56604;48.652;9.194;2022-08-21T09:10:41;96402.03;;;27.11;39.55
69411;BME280;56604;48.652;9.194;2022-08-21T09:13:20;96387.91;;;27.72;38.12
69411;BME280;56604;48.652;9.194;2022-08-21T09:16:16;96400.72;;;27.05;38.98
69411;BME280;56604;48.652;9.194;2022-08-21T09:21:49;96408.34;;;26.83;38.07
69411;BME280;56604;48.652;9.194;2022-08-21T09:27:05;96404.25;;;26.58;38.50
69411;BME280;56604;48.652;9.194;2022-08-21T09:29:36;96398.72;;;26.51;35.16
69411;BME280;56604;48.652;9.194;2022-08-21T09:32:11;96394.94;;;26.55;36.58
69411;BME280;56604;48.652;9.194;2022-08-21T09:34:40;96393.28;;;26.35;39.96
69411;BME280;56604;48.652;9.194;2022-08-21T09:37:16;96397.06;;;26.62;37.57
69411;BME280;56604;48.652;9.194;2022-08-21T09:39:42;96393.44;;;26.89;37.75
69411;BME280;56604;48.652;9.194;2022-08-21T09:42:09;96382.91;;;27.94;36.84
69411;BME280;56604;48.652;9.194;2022-08-21T09:44:37;96384.47;;;27.36;36.50
69411;BME280;56604;48.652;9.194;2022-08-21T09:47:10;96391.31;;;27.50;36.05
69411;BME280;56604;48.652;9.194;2022-08-21T09:49:40;96391.09;;;26.40;38.40
69411;BME280;56604;48.652;9.194;2022-08-21T09:52:17;96390.06;;;26.61;37.82
69411;BME280;56604;48.652;9.194;2022-08-21T09:54:45;96384.44;;;26.50;39.23
69411;BME280;56604;48.652;9.194;2022-08-21T09:57:20;96382.94;;;26.37;38.69
69411;BME280;56604;48.652;9.194;2022-08-21T10:00:28;96382.13;;;25.48;39.91
69411;BME280;56604;48.652;9.194;2022-08-21T10:03:07;96379.53;;;25.80;39.69
69411;BME280;56604;48.652;9.194;2022-08-21T10:05:33;96380.81;;;25.70;39.94
69411;BME280;56604;48.652;9.194;2022-08-21T10:08:00;96378.38;;;25.65;39.36
69411;BME280;56604;48.652;9.194;2022-08-21T10:10:29;96381.47;;;26.71;37.95
69411;BME280;56604;48.652;9.194;2022-08-21T10:18:53;96369.53;;;26.09;39.41
69411;BME280;56604;48.652;9.194;2022-08-21T10:21:28;96371.50;;;26.56;37.86
69411;BME280;56604;48.652;9.194;2022-08-21T10:26:49;96362.78;;;25.58;38.80
69411;BME280;56604;48.652;9.194;2022-08-21T10:29:25;96361.09;;;26.26;38.72
69411;BME280;56604;48.652;9.194;2022-08-21T10:34:50;96358.13;;;25.43;39.66
69411;BME280;56604;48.652;9.194;2022-08-21T10:37:35;96359.97;;;26.43;37.88
69411;BME280;56604;48.652;9.194;2022-08-21T10:40:30;96353.09;;;26.45;37.52
69411;BME280;56604;48.652;9.194;2022-08-21T10:43:40;96357.66;;;25.82;38.43
69411;BME280;56604;48.652;9.194;2022-08-21T11:00:31;96345.00;;;25.70;40.37
69411;BME280;56604;48.652;9.194;2022-08-21T11:03:07;96346.75;;;25.90;38.94
69411;BME280;56604;48.652;9.194;2022-08-21T11:08:06;96344.66;;;25.71;40.05
69411;BME280;56604;48.652;9.194;2022-08-21T11:10:49;96333.69;;;25.92;39.09
69411;BME280;56604;48.652;9.194;2022-08-21T11:16:23;96335.56;;;25.76;39.38
69411;BME280;56604;48.652;9.194;2022-08-21T11:19:08;96332.13;;;25.63;38.36
69411;BME280;56604;48.652;9.194;2022-08-21T11:24:31;96330.41;;;26.15;38.87
69411;BME280;56604;48.652;9.194;2022-08-21T11:27:09;96334.94;;;26.11;40.04
69411;BME280;56604;48.652;9.194;2022-08-21T11:29:41;96324.28;;;25.86;39.87
69411;BME280;56604;48.652;9.194;2022-08-21T11:37:46;96324.91;;;25.23;39.14
69411;BME280;56604;48.652;9.194;2022-08-21T11:45:55;96314.19;;;24.86;39.57
69411;BME280;56604;48.652;9.194;2022-08-21T11:50:59;96309.63;;;24.75;41.43
69411;BME280;56604;48.652;9.194;2022-08-21T11:53:39;96313.03;;;25.12;39.80
69411;BME280;56604;48.652;9.194;2022-08-21T11:56:32;96303.47;;;25.27;40.94
69411;BME280;56604;48.652;9.194;2022-08-21T11:59:04;96311.81;;;25.22;39.50
69411;BME280;56604;48.652;9.194;2022-08-21T12:01:38;96308.16;;;25.30;37.66
69411;BME280;56604;48.652;9.194;2022-08-21T12:04:34;96317.66;;;25.68;38.86
69411;BME280;56604;48.652;9.194;2022-08-21T12:07:16;96309.44;;;25.48;37.97
69411;BME280;56604;48.652;9.194;2022-08-21T12:09:52;96311.69;;;25.46;38.03
69411;BME280;56604;48.652;9.194;2022-08-21T12:12:30;96305.59;;;25.49;38.59
69411;BME280;56604;48.652;9.194;2022-08-21T12:17:54;96308.00;;;25.10;36.90
69411;BME280;56604;48.652;9.194;2022-08-21T12:22:53;96296.16;;;24.87;38.09
69411;BME280;56604;48.652;9.194;2022-08-21T12:25:20;96295.88;;;25.04;38.17
69411;BME280;56604;48.652;9.194;2022-08-21T12:27:53;96297.13;;;25.19;39.06
69411;BME280;56604;48.652;9.194;2022-08-21T12:33:02;96284.00;;;25.18;39.80
69411;BME280;56604;48.652;9.194;2022-08-21T12:35:33;96283.69;;;25.35;39.02
69411;BME280;56604;48.652;9.194;2022-08-21T12:38:18;96279.97;;;25.40;37.52
69411;BME280;56604;48.652;9.194;2022-08-21T12:41:01;96284.34;;;25.16;37.69
69411;BME280;56604;48.652;9.194;2022-08-21T12:45:53;96260.94;;;25.32;36.98
69411;BME280;56604;48.652;9.194;2022-08-21T12:48:35;96268.28;;;25.64;37.77
69411;BME280;56604;48.652;9.194;2022-08-21T12:51:14;96264.53;;;25.52;35.95
69411;BME280;56604;48.652;9.194;2022-08-21T12:53:45;96273.31;;;25.21;36.11
69411;BME280;56604;48.652;9.194;2022-08-21T12:56:15;96268.97;;;25.04;35.93
69411;BME280;56604;48.652;9.194;2022-08-21T12:58:46;96274.50;;;25.36;36.50
69411;BME280;56604;48.652;9.194;2022-08-21T13:01:23;96274.00;;;25.18;33.92
69411;BME280;56604;48.652;9.194;2022-08-21T13:03:53;96275.72;;;24.98;34.51
69411;BME280;56604;48.652;9.194;2022-08-21T13:06:20;96275.47;;;25.16;34.77
69411;BME280;56604;48.652;9.194;2022-08-21T13:08:47;96271.31;;;25.18;35.04
69411;BME280;56604;48.652;9.194;2022-08-21T13:11:16;96267.22;;;25.52;37.53
69411;BME280;56604;48.652;9.194;2022-08-21T13:13:43;96266.72;;;25.63;34.44
69411;BME280;56604;48.652;9.194;2022-08-21T13:16:19;96272.03;;;25.59;35.73
69411;BME280;56604;48.652;9.194;2022-08-21T13:19:01;96261.25;;;25.75;35.72
69411;BME280;56604;48.652;9.194;2022-08-21T13:21:34;96261.91;;;25.40;34.04
69411;BME280;56604;48.652;9.194;2022-08-21T13:24:21;96270.53;;;25.46;34.02
69411;BME280;56604;48.652;9.194;2022-08-21T13:26:47;96261.34;;;25.06;33.91
69411;BME280;56604;48.652;9.194;2022-08-21T13:29:16;96265.06;;;25.42;34.40
69411;BME280;56604;48.652;9.194;2022-08-21T13:31:51;96270.19;;;25.47;35.26
69411;BME280;56604;48.652;9.194;2022-08-21T13:34:19;96256.47;;;25.52;34.64
69411;BME280;56604;48.652;9.194;2022-08-21T13:36:46;96253.63;;;25.33;32.49
69411;BME280;56604;48.652;9.194;2022-08-21T13:39:18;96260.44;;;25.43;33.50
69411;BME280;56604;48.652;9.194;2022-08-21T13:41:48;96257.47;;;25.32;33.45
69411;BME280;56604;48.652;9.194;2022-08-21T13:44:21;96260.09;;;25.44;33.82
69411;BME280;56604;48.652;9.194;2022-08-21T13:46:48;96252.31;;;25.27;33.36
69411;BME280;56604;48.652;9.194;2022-08-21T13:49:17;96254.16;;;25.23;34.45
69411;BME280;56604;48.652;9.194;2022-08-21T13:51:44;96258.63;;;25.19;34.76
69411;BME280;56604;48.652;9.194;2022-08-21T13:54:29;96259.41;;;24.91;34.60
69411;BME280;56604;48.652;9.194;2022-08-21T13:56:58;96253.81;;;24.84;35.80
69411;BME280;56604;48.652;9.194;2022-08-21T13:59:31;96244.34;;;25.02;35.79
69411;BME280;56604;48.652;9.194;2022-08-21T14:02:22;96254.19;;;24.98;35.14
69411;BME280;56604;48.652;9.194;2022-08-21T14:04:57;96246.41;;;25.21;36.61
69411;BME280;56604;48.652;9.194;2022-08-21T14:07:33;96254.06;;;25.19;36.28
69411;BME280;56604;48.652;9.194;2022-08-21T14:10:19;96252.84;;;25.04;35.24
69411;BME280;56604;48.652;9.194;2022-08-21T14:12:51;96251.25;;;25.16;35.41
69411;BME280;56604;48.652;9.194;2022-08-21T14:15:23;96245.41;;;25.13;35.98
69411;BME280;56604;48.652;9.194;2022-08-21T14:17:49;96238.38;;;25.09;35.77
69411;BME280;56604;48.652;9.194;2022-08-21T14:20:32;96241.88;;;24.97;35.83